createdAt,value
2018-08-16T00:19:07.156Z,17.50
2018-08-16T00:21:35.696Z,17.50
2018-08-16T00:24:04.205Z,17.40
2018-08-16T00:26:32.673Z,17.40
2018-08-16T00:29:01.300Z,17.40
2018-08-16T00:48:52.283Z,17.00
2018-08-16T00:51:21.363Z,17.10
2018-08-16T00:53:49.862Z,17.10
2018-08-16T00:56:19.126Z,17.10
2018-08-16T00:58:47.513Z,17.20
2018-08-16T01:18:37.771Z,17.00
2018-08-16T01:21:06.328Z,16.90
2018-08-16T01:23:34.763Z,16.90
2018-08-16T01:43:24.451Z,16.60
2018-08-16T01:45:52.915Z,16.60
2018-08-16T01:48:21.961Z,16.50
2018-08-16T01:50:50.546Z,16.50
2018-08-16T03:22:13.637Z,15.90
2018-08-16T03:24:43.081Z,15.90
2018-08-16T03:27:12.413Z,15.80
2018-08-16T03:29:42.056Z,15.80
2018-08-16T03:32:10.785Z,15.80
2018-08-16T03:34:39.359Z,15.80
2018-08-16T03:37:08.628Z,15.80
2018-08-16T03:39:37.170Z,15.80
2018-08-16T03:42:06.347Z,15.70
2018-08-16T03:44:35.044Z,15.70
2018-08-16T03:47:03.541Z,15.70
2018-08-16T04:06:54.181Z,15.60
2018-08-16T04:09:22.881Z,15.60
2018-08-16T04:11:52.125Z,15.60
2018-08-16T04:14:20.608Z,15.60
2018-08-16T04:16:49.121Z,15.50
2018-08-16T04:19:17.678Z,15.60
2018-08-16T04:21:46.411Z,15.60
2018-08-16T04:24:15.498Z,15.60
2018-08-16T04:26:44.089Z,15.60
2018-08-16T04:29:12.641Z,15.50
2018-08-16T04:31:41.167Z,15.50
2018-08-16T04:34:10.925Z,15.50
2018-08-16T04:36:39.399Z,15.50
2018-08-16T04:39:08.785Z,15.50
2018-08-16T04:41:38.319Z,15.50
2018-08-16T04:44:07.551Z,15.50
2018-08-16T04:46:36.089Z,15.50
2018-08-16T04:49:04.549Z,15.40
2018-08-16T04:51:33.289Z,15.40
2018-08-16T04:54:02.950Z,15.30
2018-08-16T04:56:31.469Z,15.40
2018-08-16T04:59:01.372Z,15.40
2018-08-16T05:01:29.795Z,15.50
2018-08-16T05:03:58.354Z,15.50
2018-08-16T05:23:46.976Z,15.60
2018-08-16T05:26:15.370Z,15.60
2018-08-16T05:46:06.310Z,15.60
2018-08-16T05:48:34.761Z,15.60
2018-08-16T05:51:03.266Z,15.70
2018-08-16T05:53:32.030Z,15.70
2018-08-16T06:13:24.266Z,16.40
2018-08-16T06:15:52.739Z,16.50
2018-08-16T06:18:21.390Z,16.70
2018-08-16T06:20:49.908Z,16.80
2018-08-16T06:40:41.293Z,17.20
2018-08-16T06:43:10.450Z,17.30
2018-08-16T06:45:39.045Z,17.20
2018-08-16T06:48:07.785Z,17.30
2018-08-16T06:50:36.880Z,17.30
2018-08-16T06:53:05.390Z,17.30
2018-08-16T06:55:34.024Z,17.30
2018-08-16T06:58:02.616Z,17.40
2018-08-16T07:00:31.199Z,17.40
2018-08-16T07:02:59.900Z,17.40
2018-08-16T07:05:28.303Z,17.60
2018-08-16T07:07:57.496Z,17.60
2018-08-16T07:10:26.214Z,17.80
2018-08-16T07:12:54.762Z,17.80
2018-08-16T07:15:24.029Z,17.90
2018-08-16T07:17:52.570Z,17.90
2018-08-16T07:20:21.379Z,18.00
2018-08-16T07:22:49.753Z,18.10
2018-08-16T07:25:18.327Z,18.20
2018-08-16T07:27:46.801Z,18.10
2018-08-16T07:30:15.348Z,18.20
2018-08-16T07:50:06.698Z,18.70
2018-08-16T07:52:35.434Z,18.70
2018-08-16T07:55:04.312Z,18.70
2018-08-16T07:57:33.762Z,18.80
2018-08-16T08:00:02.559Z,18.90
2018-08-16T08:02:31.110Z,18.90
2018-08-16T08:04:59.818Z,19.00
2018-08-16T08:07:29.151Z,19.10
2018-08-16T08:09:57.779Z,19.10
2018-08-16T08:12:27.091Z,19.20
2018-08-16T08:14:56.354Z,19.20
2018-08-16T08:17:24.826Z,19.30
2018-08-16T08:19:54.115Z,19.30
2018-08-16T08:22:22.721Z,19.40
2018-08-16T08:24:51.386Z,19.50
2018-08-16T08:27:20.056Z,19.50
2018-08-16T08:29:48.540Z,19.60
2018-08-16T08:32:17.702Z,19.70
2018-08-16T08:34:48.086Z,19.70
2018-08-16T08:37:28.078Z,19.70
2018-08-16T08:39:56.599Z,19.80
2018-08-16T08:59:47.198Z,20.30
2018-08-16T09:02:15.968Z,20.40
2018-08-16T09:04:44.484Z,20.50
2018-08-16T09:07:14.771Z,20.60
2018-08-16T09:10:59.522Z,20.60
2018-08-16T09:13:39.572Z,20.60
2018-08-16T09:16:13.232Z,20.60
2018-08-16T09:18:42.498Z,20.70
2018-08-16T09:21:11.901Z,20.80
2018-08-16T09:23:40.630Z,20.90
2018-08-16T09:26:14.447Z,20.90
2018-08-16T09:28:43.625Z,21.00
2018-08-16T09:31:24.200Z,21.10
2018-08-16T09:34:10.709Z,21.20
2018-08-16T09:36:39.358Z,21.30
2018-08-16T09:39:08.862Z,21.30
2018-08-16T09:41:37.481Z,21.30
2018-08-16T09:44:06.756Z,21.40
2018-08-16T09:47:12.930Z,21.50
2018-08-16T09:49:46.405Z,21.60
2018-08-16T09:52:15.650Z,21.60
2018-08-16T09:54:44.174Z,21.70
2018-08-16T09:57:13.801Z,21.70
2018-08-16T10:17:04.762Z,22.30
2018-08-16T10:19:33.356Z,22.30
2018-08-16T10:39:23.076Z,23.00
2018-08-16T10:41:52.363Z,23.10
2018-08-16T10:44:21.092Z,23.10
2018-08-16T10:46:49.830Z,23.20
2018-08-16T10:49:18.337Z,23.30
2018-08-16T10:51:46.853Z,23.30
2018-08-16T10:54:15.389Z,23.50
2018-08-16T10:56:44.014Z,23.60
2018-08-16T10:59:12.502Z,23.60
2018-08-16T11:19:02.450Z,24.00
2018-08-16T11:38:52.802Z,24.40
2018-08-16T11:41:22.082Z,24.50
2018-08-16T11:43:50.611Z,24.50
2018-08-16T11:46:19.182Z,24.50
2018-08-16T12:06:09.197Z,25.00
2018-08-16T12:08:38.230Z,25.10
2018-08-16T12:11:07.226Z,25.10
2018-08-16T12:13:36.369Z,25.10
2018-08-16T12:16:05.115Z,25.10
2018-08-16T12:18:33.587Z,25.20
2018-08-16T12:21:03.150Z,25.20
2018-08-16T12:23:32.386Z,25.30
2018-08-16T12:26:02.120Z,25.40
2018-08-16T12:28:30.660Z,25.50
2018-08-16T12:30:59.137Z,25.40
2018-08-16T12:33:27.665Z,25.50
2018-08-16T12:35:56.219Z,25.70
2018-08-16T12:38:24.835Z,25.70
2018-08-16T12:40:53.435Z,25.70
2018-08-16T12:43:21.986Z,25.80
2018-08-16T12:45:50.732Z,25.90
2018-08-16T12:48:19.266Z,25.90
2018-08-16T12:50:47.785Z,26.00
2018-08-16T12:53:16.388Z,26.10
2018-08-16T13:13:06.759Z,26.50
2018-08-16T13:15:35.581Z,26.40
2018-08-16T13:18:04.184Z,26.60
2018-08-16T13:20:33.255Z,26.60
2018-08-16T13:23:02.062Z,26.70
2018-08-16T13:25:30.531Z,26.90
2018-08-16T13:27:59.077Z,26.90
2018-08-16T13:30:27.616Z,27.10
2018-08-16T13:32:56.838Z,27.30
2018-08-16T13:35:25.366Z,27.60
2018-08-16T13:55:14.765Z,29.10
2018-08-16T13:57:43.864Z,29.00
2018-08-16T14:17:33.267Z,31.80
2018-08-16T14:37:25.366Z,33.80
2018-08-16T14:39:54.108Z,34.10
2018-08-16T14:42:24.952Z,34.50
2018-08-16T15:02:14.580Z,35.60
2018-08-16T15:22:04.761Z,37.10
2018-08-16T15:41:54.246Z,36.30
2018-08-16T15:44:23.349Z,36.70
2018-08-16T15:46:52.597Z,36.60
2018-08-16T15:49:21.303Z,36.70
2018-08-16T15:51:50.496Z,36.70
2018-08-16T16:11:40.330Z,33.20
2018-08-16T16:14:08.896Z,32.40
2018-08-16T16:16:37.674Z,31.80
2018-08-16T16:19:06.356Z,31.50
2018-08-16T16:21:35.437Z,31.10
2018-08-16T16:24:04.034Z,30.90
2018-08-16T16:26:32.814Z,30.70
2018-08-16T16:29:01.268Z,30.30
2018-08-16T16:31:29.710Z,30.00
2018-08-16T16:33:59.778Z,29.70
2018-08-16T16:36:28.209Z,29.50
2018-08-16T16:38:57.649Z,29.40
2018-08-16T16:41:26.198Z,29.30
2018-08-16T16:43:55.559Z,29.10
2018-08-16T17:03:45.767Z,28.20
2018-08-16T17:06:14.938Z,28.10
2018-08-16T17:08:43.509Z,27.90
2018-08-16T17:11:12.089Z,27.80
2018-08-16T17:13:40.782Z,27.80
2018-08-16T17:16:09.322Z,27.80
2018-08-16T17:18:39.031Z,27.60
2018-08-16T17:21:07.522Z,27.50
2018-08-16T17:23:36.806Z,27.50
2018-08-16T17:26:05.707Z,27.30
2018-08-16T17:45:55.888Z,26.80
2018-08-16T17:48:25.079Z,26.70
2018-08-16T17:50:53.581Z,26.70
2018-08-16T17:53:22.762Z,26.60
2018-08-16T17:55:51.366Z,26.50
2018-08-16T17:58:20.607Z,26.40
2018-08-16T18:00:49.156Z,26.20
2018-08-16T18:03:18.034Z,26.00
2018-08-16T18:05:46.881Z,25.80
2018-08-16T18:08:16.258Z,25.70
2018-08-16T18:10:44.927Z,25.50
2018-08-16T18:13:13.479Z,25.30
2018-08-16T18:15:41.942Z,25.10
2018-08-16T18:18:11.303Z,25.00
2018-08-16T18:20:40.510Z,24.90
2018-08-16T18:23:10.251Z,24.90
2018-08-16T18:25:38.813Z,24.80
2018-08-16T18:28:07.390Z,24.70
2018-08-16T18:30:36.804Z,24.50
2018-08-16T18:33:05.567Z,24.30
2018-08-16T18:35:34.865Z,24.20
2018-08-16T18:38:03.297Z,24.10
2018-08-16T18:40:32.067Z,24.00
2018-08-16T18:43:00.546Z,23.90
2018-08-16T18:45:29.692Z,23.90
2018-08-16T18:47:58.189Z,23.90
2018-08-16T18:50:26.701Z,23.80
2018-08-16T18:52:55.856Z,23.80
2018-08-16T18:55:24.388Z,23.80
2018-08-16T18:57:53.002Z,23.80
2018-08-16T19:17:43.326Z,23.40
2018-08-16T19:20:11.894Z,23.30
2018-08-16T19:22:40.413Z,23.20
2018-08-16T19:25:09.077Z,23.20
2018-08-16T19:44:59.470Z,22.50
2018-08-16T19:47:28.101Z,22.40
2018-08-16T20:07:18.003Z,22.20
2018-08-16T20:09:47.407Z,22.20
2018-08-16T20:12:15.921Z,22.20
2018-08-16T20:14:45.359Z,22.10
2018-08-16T20:17:13.921Z,22.10
2018-08-16T20:19:43.255Z,22.00
2018-08-16T20:22:18.099Z,22.00
2018-08-16T20:42:08.259Z,21.60
2018-08-16T20:44:36.784Z,21.50
2018-08-16T20:47:05.325Z,21.50
2018-08-16T20:49:33.821Z,21.40
2018-08-16T20:52:03.158Z,21.40
2018-08-16T20:54:31.585Z,21.40
2018-08-16T21:14:20.638Z,20.90
2018-08-16T21:16:49.144Z,20.80
2018-08-16T21:19:17.646Z,20.70
2018-08-16T21:21:46.164Z,20.70
2018-08-16T21:24:14.618Z,20.60
2018-08-16T21:26:43.141Z,20.60
2018-08-16T21:29:11.625Z,20.40
2018-08-16T21:31:40.059Z,20.30
2018-08-16T21:34:08.514Z,20.30
2018-08-16T21:36:37.383Z,20.30
2018-08-16T21:39:08.371Z,20.20
2018-08-16T21:41:36.862Z,20.20
2018-08-16T21:44:05.391Z,20.20
2018-08-16T21:46:33.938Z,20.10
2018-08-16T21:49:02.433Z,20.00
2018-08-16T21:51:30.984Z,20.00
2018-08-16T21:53:59.526Z,19.90
2018-08-16T21:56:29.433Z,19.80
2018-08-16T21:58:58.947Z,19.80
2018-08-16T22:01:27.458Z,19.80
2018-08-16T22:03:55.918Z,19.80
2018-08-16T22:06:35.878Z,19.70
2018-08-16T22:09:06.170Z,19.70
2018-08-16T22:11:34.705Z,19.70
2018-08-16T22:14:05.789Z,19.70
2018-08-16T22:16:35.064Z,19.70
2018-08-16T22:19:04.165Z,19.70
2018-08-16T22:21:32.713Z,19.80
2018-08-16T22:24:01.215Z,19.80
2018-08-16T22:26:29.694Z,19.70
2018-08-16T22:28:58.287Z,19.80
2018-08-16T22:31:26.834Z,19.70
2018-08-16T22:33:55.305Z,19.80
2018-08-16T22:36:23.794Z,19.70
2018-08-16T22:38:54.561Z,19.70
2018-08-16T22:58:44.681Z,19.20
2018-08-16T23:01:13.326Z,19.10
2018-08-16T23:03:41.863Z,19.00
2018-08-16T23:06:11.825Z,19.00
2018-08-16T23:08:40.494Z,18.90
2018-08-16T23:11:09.046Z,19.00
2018-08-16T23:13:37.624Z,19.00
2018-08-16T23:16:06.242Z,19.20
2018-08-16T23:18:35.590Z,19.10
2018-08-16T23:38:25.955Z,19.00
2018-08-16T23:40:55.813Z,18.90
2018-08-16T23:43:25.727Z,18.90
2018-08-16T23:45:54.915Z,18.80
2018-08-16T23:48:30.074Z,18.80
2018-08-16T23:50:59.262Z,18.70
2018-08-16T23:53:28.402Z,18.70
2018-08-16T23:55:57.149Z,18.70
2018-08-16T23:58:25.588Z,18.70
